sensor_id;sensor_type;location;lat;lon;timestamp;pressure;altitude;pressure_sealevel;temperature;humidity
54592;BME280;40488;48.558;18.150;2024-02-28T00:00:15;99481.56;;;10.65;87.66
54592;BME280;40488;48.558;18.150;2024-02-28T00:02:43;99488.41;;;10.60;88.00
54592;BME280;40488;48.558;18.150;2024-02-28T00:05:12;99487.56;;;10.57;88.03
54592;BME280;40488;48.558;18.150;2024-02-28T00:07:40;99486.75;;;10.50;87.93
54592;BME280;40488;48.558;18.150;2024-02-28T00:10:09;99485.03;;;10.46;88.17
54592;BME280;40488;48.558;18.150;2024-02-28T00:12:39;99494.44;;;10.43;87.71
54592;BME280;40488;48.558;18.150;2024-02-28T00:15:08;99487.63;;;10.43;88.44
54592;BME280;40488;48.558;18.150;2024-02-28T00:17:38;99490.16;;;10.42;88.43
54592;BME280;40488;48.558;18.150;2024-02-28T00:20:08;99491.88;;;10.41;88.66
54592;BME280;40488;48.558;18.150;2024-02-28T00:22:39;99488.47;;;10.39;88.50
54592;BME280;40488;48.558;18.150;2024-02-28T00:25:07;99483.38;;;10.39;88.31
54592;BME280;40488;48.558;18.150;2024-02-28T00:27:39;99491.91;;;10.38;88.60
54592;BME280;40488;48.558;18.150;2024-02-28T00:30:08;99487.66;;;10.39;88.91
54592;BME280;40488;48.558;18.150;2024-02-28T00:32:37;99494.44;;;10.37;88.51
54592;BME280;40488;48.558;18.150;2024-02-28T00:35:06;99498.72;;;10.36;88.67
54592;BME280;40488;48.558;18.150;2024-02-28T00:37:34;99490.19;;;10.34;88.85
54592;BME280;40488;48.558;18.150;2024-02-28T00:40:03;99491.91;;;10.38;88.57
54592;BME280;40488;48.558;18.150;2024-02-28T00:42:31;99491.88;;;10.40;88.74
54592;BME280;40488;48.558;18.150;2024-02-28T00:45:02;99493.56;;;10.39;88.48
54592;BME280;40488;48.558;18.150;2024-02-28T00:47:30;99494.44;;;10.38;88.41
54592;BME280;40488;48.558;18.150;2024-02-28T00:49:59;99497.00;;;10.41;88.39
54592;BME280;40488;48.558;18.150;2024-02-28T00:52:30;99502.91;;;10.42;88.53
54592;BME280;40488;48.558;18.150;2024-02-28T00:54:59;99499.53;;;10.43;88.34
54592;BME280;40488;48.558;18.150;2024-02-28T00:57:28;99496.97;;;10.43;88.60
54592;BME280;40488;48.558;18.150;2024-02-28T00:59:56;99496.97;;;10.44;88.46
54592;BME280;40488;48.558;18.150;2024-02-28T01:02:26;99501.22;;;10.44;88.26
54592;BME280;40488;48.558;18.150;2024-02-28T01:04:54;99503.78;;;10.45;88.58
54592;BME280;40488;48.558;18.150;2024-02-28T01:07:23;99500.34;;;10.46;88.32
54592;BME280;40488;48.558;18.150;2024-02-28T01:09:51;99507.16;;;10.50;88.58
54592;BME280;40488;48.558;18.150;2024-02-28T01:12:20;99512.22;;;10.53;88.58
54592;BME280;40488;48.558;18.150;2024-02-28T01:14:48;99513.09;;;10.55;88.46
54592;BME280;40488;48.558;18.150;2024-02-28T01:17:16;99509.69;;;10.56;88.36
54592;BME280;40488;48.558;18.150;2024-02-28T01:19:46;99506.28;;;10.56;88.13
54592;BME280;40488;48.558;18.150;2024-02-28T01:22:16;99503.75;;;10.54;88.11
54592;BME280;40488;48.558;18.150;2024-02-28T01:24:44;99503.75;;;10.51;88.25
54592;BME280;40488;48.558;18.150;2024-02-28T01:27:13;99503.75;;;10.54;88.52
54592;BME280;40488;48.558;18.150;2024-02-28T01:29:41;99503.75;;;10.54;88.17
54592;BME280;40488;48.558;18.150;2024-02-28T01:32:10;99513.09;;;10.54;88.03
54592;BME280;40488;48.558;18.150;2024-02-28T01:34:38;99504.59;;;10.55;87.82
54592;BME280;40488;48.558;18.150;2024-02-28T01:37:09;99508.00;;;10.55;88.12
54592;BME280;40488;48.558;18.150;2024-02-28T01:39:37;99502.91;;;10.55;87.85
54592;BME280;40488;48.558;18.150;2024-02-28T01:42:06;99508.84;;;10.54;87.75
54592;BME280;40488;48.558;18.150;2024-02-28T01:44:34;99503.75;;;10.51;87.96
54592;BME280;40488;48.558;18.150;2024-02-28T01:47:06;99495.25;;;10.52;88.03
54592;BME280;40488;48.558;18.150;2024-02-28T01:49:35;99486.75;;;10.50;87.81
54592;BME280;40488;48.558;18.150;2024-02-28T01:52:04;99494.41;;;10.50;87.73
54592;BME280;40488;48.558;18.150;2024-02-28T01:54:34;99494.38;;;10.49;87.63
54592;BME280;40488;48.558;18.150;2024-02-28T01:57:03;99499.50;;;10.47;87.83
54592;BME280;40488;48.558;18.150;2024-02-28T01:59:31;99498.66;;;10.45;87.83
54592;BME280;40488;48.558;18.150;2024-02-28T02:02:00;99504.63;;;10.47;87.76
54592;BME280;40488;48.558;18.150;2024-02-28T02:04:28;99502.91;;;10.48;87.85
54592;BME280;40488;48.558;18.150;2024-02-28T02:06:57;99498.66;;;10.47;87.74
54592;BME280;40488;48.558;18.150;2024-02-28T02:09:27;99495.25;;;10.46;87.89
54592;BME280;40488;48.558;18.150;2024-02-28T02:11:57;99501.22;;;10.45;88.00
54592;BME280;40488;48.558;18.150;2024-02-28T02:14:25;99495.25;;;10.42;87.89
54592;BME280;40488;48.558;18.150;2024-02-28T02:16:54;99502.09;;;10.41;87.65
54592;BME280;40488;48.558;18.150;2024-02-28T02:19:22;99513.13;;;10.43;88.08
54592;BME280;40488;48.558;18.150;2024-02-28T02:21:52;99521.63;;;10.42;88.04
54592;BME280;40488;48.558;18.150;2024-02-28T02:24:22;99511.44;;;10.41;87.89
54592;BME280;40488;48.558;18.150;2024-02-28T02:26:54;99508.91;;;10.41;87.94
54592;BME280;40488;48.558;18.150;2024-02-28T02:29:24;99513.13;;;10.40;87.89
54592;BME280;40488;48.558;18.150;2024-02-28T02:31:52;99511.44;;;10.39;87.99
54592;BME280;40488;48.558;18.150;2024-02-28T02:34:20;99513.13;;;10.40;87.98
54592;BME280;40488;48.558;18.150;2024-02-28T02:36:49;99508.88;;;10.39;87.84
54592;BME280;40488;48.558;18.150;2024-02-28T02:39:17;99518.25;;;10.40;88.16
54592;BME280;40488;48.558;18.150;2024-02-28T02:41:47;99524.19;;;10.39;87.84
54592;BME280;40488;48.558;18.150;2024-02-28T02:44:16;99515.69;;;10.37;87.97
54592;BME280;40488;48.558;18.150;2024-02-28T02:46:44;99522.50;;;10.38;87.94
54592;BME280;40488;48.558;18.150;2024-02-28T02:49:13;99521.63;;;10.39;87.97
54592;BME280;40488;48.558;18.150;2024-02-28T02:51:41;99526.75;;;10.38;87.82
54592;BME280;40488;48.558;18.150;2024-02-28T02:54:10;99533.56;;;10.39;88.11
54592;BME280;40488;48.558;18.150;2024-02-28T02:56:40;99539.50;;;10.38;88.08
54592;BME280;40488;48.558;18.150;2024-02-28T02:59:11;99531.00;;;10.36;87.93
54592;BME280;40488;48.558;18.150;2024-02-28T03:01:39;99538.66;;;10.34;88.17
54592;BME280;40488;48.558;18.150;2024-02-28T03:04:08;99541.22;;;10.31;88.06
54592;BME280;40488;48.558;18.150;2024-02-28T03:06:36;99542.91;;;10.32;87.85
54592;BME280;40488;48.558;18.150;2024-02-28T03:09:05;99548.00;;;10.35;88.05
54592;BME280;40488;48.558;18.150;2024-02-28T03:11:34;99542.91;;;10.32;87.72
54592;BME280;40488;48.558;18.150;2024-02-28T03:14:03;99543.75;;;10.34;87.83
54592;BME280;40488;48.558;18.150;2024-02-28T03:16:33;99553.13;;;10.32;87.97
54592;BME280;40488;48.558;18.150;2024-02-28T03:19:04;99551.41;;;10.33;88.16
54592;BME280;40488;48.558;18.150;2024-02-28T03:21:33;99550.59;;;10.29;88.03
54592;BME280;40488;48.558;18.150;2024-02-28T03:24:01;99542.94;;;10.26;88.32
54592;BME280;40488;48.558;18.150;2024-02-28T03:26:30;99554.84;;;10.24;88.28
54592;BME280;40488;48.558;18.150;2024-02-28T03:28:59;99549.75;;;10.24;88.25
54592;BME280;40488;48.558;18.150;2024-02-28T03:31:27;99548.91;;;10.24;88.06
54592;BME280;40488;48.558;18.150;2024-02-28T03:33:57;99554.84;;;10.21;88.10
54592;BME280;40488;48.558;18.150;2024-02-28T03:36:27;99556.56;;;10.16;88.22
54592;BME280;40488;48.558;18.150;2024-02-28T03:38:55;99558.25;;;10.14;88.50
54592;BME280;40488;48.558;18.150;2024-02-28T03:41:24;99553.13;;;10.11;88.66
54592;BME280;40488;48.558;18.150;2024-02-28T03:43:52;99549.75;;;10.12;88.46
54592;BME280;40488;48.558;18.150;2024-02-28T03:46:21;99547.19;;;10.09;88.99
54592;BME280;40488;48.558;18.150;2024-02-28T03:48:49;99553.13;;;10.11;88.71
54592;BME280;40488;48.558;18.150;2024-02-28T03:51:19;99553.13;;;10.13;88.92
54592;BME280;40488;48.558;18.150;2024-02-28T03:53:48;99548.91;;;10.12;88.67
54592;BME280;40488;48.558;18.150;2024-02-28T03:56:21;99542.94;;;10.14;88.69
54592;BME280;40488;48.558;18.150;2024-02-28T03:58:52;99554.00;;;10.13;88.82
54592;BME280;40488;48.558;18.150;2024-02-28T04:01:20;99554.88;;;10.12;88.79
54592;BME280;40488;48.558;18.150;2024-02-28T04:03:49;99548.91;;;10.12;89.11
54592;BME280;40488;48.558;18.150;2024-02-28T04:06:18;99543.78;;;10.10;89.21
54592;BME280;40488;48.558;18.150;2024-02-28T04:08:48;99542.06;;;10.10;89.10
54592;BME280;40488;48.558;18.150;2024-02-28T04:11:16;99556.53;;;10.10;89.25
54592;BME280;40488;48.558;18.150;2024-02-28T04:13:45;99549.72;;;10.06;88.75
54592;BME280;40488;48.558;18.150;2024-02-28T04:16:14;99551.44;;;10.04;88.84
54592;BME280;40488;48.558;18.150;2024-02-28T04:18:42;99553.13;;;10.02;89.30
54592;BME280;40488;48.558;18.150;2024-02-28T04:21:10;99557.38;;;10.03;89.21
54592;BME280;40488;48.558;18.150;2024-02-28T04:23:39;99556.53;;;10.01;89.28
54592;BME280;40488;48.558;18.150;2024-02-28T04:26:10;99557.38;;;10.00;89.20
54592;BME280;40488;48.558;18.150;2024-02-28T04:28:40;99558.22;;;10.02;89.07
54592;BME280;40488;48.558;18.150;2024-02-28T04:31:09;99570.09;;;10.03;89.21
54592;BME280;40488;48.558;18.150;2024-02-28T04:33:37;99563.34;;;10.02;89.26
54592;BME280;40488;48.558;18.150;2024-02-28T04:36:06;99562.47;;;10.01;89.66
54592;BME280;40488;48.558;18.150;2024-02-28T04:38:34;99568.44;;;10.02;89.28
54592;BME280;40488;48.558;18.150;2024-02-28T04:41:03;99561.63;;;10.01;89.59
54592;BME280;40488;48.558;18.150;2024-02-28T04:43:33;99565.91;;;10.00;89.42
54592;BME280;40488;48.558;18.150;2024-02-28T04:46:02;99566.72;;;10.01;89.71
54592;BME280;40488;48.558;18.150;2024-02-28T04:48:31;99563.34;;;10.02;89.73
54592;BME280;40488;48.558;18.150;2024-02-28T04:51:00;99564.16;;;10.01;89.93
54592;BME280;40488;48.558;18.150;2024-02-28T04:53:28;99568.44;;;10.02;89.83
54592;BME280;40488;48.558;18.150;2024-02-28T04:55:56;99564.19;;;10.02;89.43
54592;BME280;40488;48.558;18.150;2024-02-28T04:58:25;99571.81;;;10.01;89.39
54592;BME280;40488;48.558;18.150;2024-02-28T05:00:55;99571.81;;;10.01;89.54
54592;BME280;40488;48.558;18.150;2024-02-28T05:03:23;99571.84;;;9.98;89.83
54592;BME280;40488;48.558;18.150;2024-02-28T05:05:52;99576.09;;;9.97;89.79
54592;BME280;40488;48.558;18.150;2024-02-28T05:08:21;99571.84;;;9.95;89.91
54592;BME280;40488;48.558;18.150;2024-02-28T05:10:50;99572.66;;;9.94;89.77
54592;BME280;40488;48.558;18.150;2024-02-28T05:13:19;99575.25;;;9.91;89.93
54592;BME280;40488;48.558;18.150;2024-02-28T05:15:49;99576.09;;;9.93;90.14
54592;BME280;40488;48.558;18.150;2024-02-28T05:18:19;99579.47;;;9.96;90.23
54592;BME280;40488;48.558;18.150;2024-02-28T05:20:47;99582.88;;;9.95;90.10
54592;BME280;40488;48.558;18.150;2024-02-28T05:23:16;99582.03;;;9.95;89.70
54592;BME280;40488;48.558;18.150;2024-02-28T05:25:45;99586.25;;;9.91;89.92
54592;BME280;40488;48.558;18.150;2024-02-28T05:28:14;99587.97;;;9.89;89.97
54592;BME280;40488;48.558;18.150;2024-02-28T05:30:43;99599.03;;;9.90;90.01
54592;BME280;40488;48.558;18.150;2024-02-28T05:33:15;99593.09;;;9.91;89.86
54592;BME280;40488;48.558;18.150;2024-02-28T05:35:46;99597.31;;;9.89;89.87
54592;BME280;40488;48.558;18.150;2024-02-28T05:38:14;99601.56;;;9.90;89.71
54592;BME280;40488;48.558;18.150;2024-02-28T05:40:43;99599.84;;;9.89;89.49
54592;BME280;40488;48.558;18.150;2024-02-28T05:43:11;99600.72;;;9.88;89.71
54592;BME280;40488;48.558;18.150;2024-02-28T05:45:40;99605.81;;;9.88;89.56
54592;BME280;40488;48.558;18.150;2024-02-28T05:48:08;99604.09;;;9.84;89.05
54592;BME280;40488;48.558;18.150;2024-02-28T05:50:36;99605.81;;;9.82;89.65
54592;BME280;40488;48.558;18.150;2024-02-28T05:53:06;99604.13;;;9.81;89.46
54592;BME280;40488;48.558;18.150;2024-02-28T05:55:35;99610.06;;;9.80;89.77
54592;BME280;40488;48.558;18.150;2024-02-28T05:58:03;99614.31;;;9.78;89.52
54592;BME280;40488;48.558;18.150;2024-02-28T06:00:32;99616.00;;;9.76;89.61
54592;BME280;40488;48.558;18.150;2024-02-28T06:03:02;99609.19;;;9.75;89.29
54592;BME280;40488;48.558;18.150;2024-02-28T06:05:30;99614.28;;;9.72;89.71
54592;BME280;40488;48.558;18.150;2024-02-28T06:07:59;99615.16;;;9.69;89.26
54592;BME280;40488;48.558;18.150;2024-02-28T06:10:29;99630.44;;;9.69;89.44
54592;BME280;40488;48.558;18.150;2024-02-28T06:12:58;99621.06;;;9.70;89.25
54592;BME280;40488;48.558;18.150;2024-02-28T06:15:27;99629.56;;;9.70;89.34
54592;BME280;40488;48.558;18.150;2024-02-28T06:17:56;99624.50;;;9.69;89.53
54592;BME280;40488;48.558;18.150;2024-02-28T06:20:24;99631.28;;;9.70;89.79
54592;BME280;40488;48.558;18.150;2024-02-28T06:22:53;99635.53;;;9.69;89.65
54592;BME280;40488;48.558;18.150;2024-02-28T06:25:21;99635.53;;;9.71;89.39
54592;BME280;40488;48.558;18.150;2024-02-28T06:27:52;99639.78;;;9.75;89.49
54592;BME280;40488;48.558;18.150;2024-02-28T06:30:21;99644.88;;;9.78;89.77
54592;BME280;40488;48.558;18.150;2024-02-28T06:32:49;99642.34;;;9.78;89.78
54592;BME280;40488;48.558;18.150;2024-02-28T06:35:18;99649.97;;;9.78;89.80
54592;BME280;40488;48.558;18.150;2024-02-28T06:37:46;99658.47;;;9.80;89.58
54592;BME280;40488;48.558;18.150;2024-02-28T06:40:17;99667.00;;;9.85;90.17
54592;BME280;40488;48.558;18.150;2024-02-28T06:42:45;99663.59;;;9.89;90.06
54592;BME280;40488;48.558;18.150;2024-02-28T06:45:15;99672.09;;;9.94;89.83
54592;BME280;40488;48.558;18.150;2024-02-28T06:47:44;99658.53;;;9.98;89.92
54592;BME280;40488;48.558;18.150;2024-02-28T06:50:13;99668.72;;;10.04;89.61
54592;BME280;40488;48.558;18.150;2024-02-28T06:52:41;99675.50;;;10.08;90.13
54592;BME280;40488;48.558;18.150;2024-02-28T06:55:10;99670.47;;;10.14;89.81
54592;BME280;40488;48.558;18.150;2024-02-28T06:57:39;99678.97;;;10.19;90.08
54592;BME280;40488;48.558;18.150;2024-02-28T07:00:08;99682.38;;;10.24;89.81
54592;BME280;40488;48.558;18.150;2024-02-28T07:02:38;99683.22;;;10.29;89.48
54592;BME280;40488;48.558;18.150;2024-02-28T07:05:07;99675.56;;;10.35;89.73
54592;BME280;40488;48.558;18.150;2024-02-28T07:07:35;99675.59;;;10.41;89.41
54592;BME280;40488;48.558;18.150;2024-02-28T07:10:04;99681.53;;;10.48;89.27
54592;BME280;40488;48.558;18.150;2024-02-28T07:12:32;99677.28;;;10.48;89.42
54592;BME280;40488;48.558;18.150;2024-02-28T07:15:01;99679.81;;;10.51;89.12
54592;BME280;40488;48.558;18.150;2024-02-28T07:17:29;99690.88;;;10.56;89.25
54592;BME280;40488;48.558;18.150;2024-02-28T07:19:59;99698.53;;;10.59;88.66
54592;BME280;40488;48.558;18.150;2024-02-28T07:22:28;99688.31;;;10.64;88.53
54592;BME280;40488;48.558;18.150;2024-02-28T07:24:56;99692.56;;;10.66;88.23
54592;BME280;40488;48.558;18.150;2024-02-28T07:27:25;99696.81;;;10.73;88.15
54592;BME280;40488;48.558;18.150;2024-02-28T07:29:54;99695.09;;;10.80;88.16
54592;BME280;40488;48.558;18.150;2024-02-28T07:32:22;99692.56;;;10.82;87.94
54592;BME280;40488;48.558;18.150;2024-02-28T07:34:51;99696.78;;;10.87;87.75
54592;BME280;40488;48.558;18.150;2024-02-28T07:37:21;99695.94;;;10.93;87.66
54592;BME280;40488;48.558;18.150;2024-02-28T07:39:49;99692.50;;;11.00;87.58
54592;BME280;40488;48.558;18.150;2024-02-28T07:42:18;99701.84;;;10.99;87.53
54592;BME280;40488;48.558;18.150;2024-02-28T07:44:47;99701.88;;;11.02;87.76
54592;BME280;40488;48.558;18.150;2024-02-28T07:47:16;99702.72;;;11.06;87.78
54592;BME280;40488;48.558;18.150;2024-02-28T07:49:44;99696.75;;;11.10;88.10
54592;BME280;40488;48.558;18.150;2024-02-28T07:52:13;99694.16;;;11.16;88.07
54592;BME280;40488;48.558;18.150;2024-02-28T07:54:42;99700.09;;;11.25;87.94
54592;BME280;40488;48.558;18.150;2024-02-28T07:57:11;99704.34;;;11.34;88.19
54592;BME280;40488;48.558;18.150;2024-02-28T07:59:41;99694.94;;;11.42;87.94
54592;BME280;40488;48.558;18.150;2024-02-28T08:02:10;99705.97;;;11.56;87.84
54592;BME280;40488;48.558;18.150;2024-02-28T08:04:40;99700.81;;;11.68;87.59
54592;BME280;40488;48.558;18.150;2024-02-28T08:07:09;99708.41;;;11.82;87.67
54592;BME280;40488;48.558;18.150;2024-02-28T08:09:37;99707.47;;;11.96;87.22
54592;BME280;40488;48.558;18.150;2024-02-28T08:12:07;99700.56;;;12.10;86.86
54592;BME280;40488;48.558;18.150;2024-02-28T08:14:35;99702.22;;;12.18;86.33
54592;BME280;40488;48.558;18.150;2024-02-28T08:17:04;99693.69;;;12.19;85.88
54592;BME280;40488;48.558;18.150;2024-02-28T08:19:32;99694.53;;;12.19;85.38
54592;BME280;40488;48.558;18.150;2024-02-28T08:22:02;99693.63;;;12.25;84.57
54592;BME280;40488;48.558;18.150;2024-02-28T08:24:30;99697.00;;;12.33;84.27
54592;BME280;40488;48.558;18.150;2024-02-28T08:26:59;99697.75;;;12.41;83.70
54592;BME280;40488;48.558;18.150;2024-02-28T08:29:29;99698.56;;;12.49;83.24
54592;BME280;40488;48.558;18.150;2024-02-28T08:31:59;99712.19;;;12.54;83.26
54592;BME280;40488;48.558;18.150;2024-02-28T08:34:27;99707.03;;;12.57;82.69
54592;BME280;40488;48.558;18.150;2024-02-28T08:37:21;99703.59;;;12.61;82.63
54592;BME280;40488;48.558;18.150;2024-02-28T08:39:49;99698.44;;;12.64;81.92
54592;BME280;40488;48.558;18.150;2024-02-28T08:42:18;99706.06;;;12.67;81.52
54592;BME280;40488;48.558;18.150;2024-02-28T08:44:49;99712.88;;;12.74;81.49
54592;BME280;40488;48.558;18.150;2024-02-28T08:47:17;99707.69;;;12.78;81.23
54592;BME280;40488;48.558;18.150;2024-02-28T08:49:46;99713.59;;;12.85;80.70
54592;BME280;40488;48.558;18.150;2024-02-28T08:52:14;99717.00;;;12.87;80.55
54592;BME280;40488;48.558;18.150;2024-02-28T08:54:43;99723.75;;;12.94;80.34
54592;BME280;40488;48.558;18.150;2024-02-28T08:57:11;99720.31;;;12.98;79.56
54592;BME280;40488;48.558;18.150;2024-02-28T08:59:40;99726.28;;;12.99;79.45
54592;BME280;40488;48.558;18.150;2024-02-28T09:02:09;99727.94;;;13.04;79.25
54592;BME280;40488;48.558;18.150;2024-02-28T09:04:38;99732.16;;;13.11;78.66
54592;BME280;40488;48.558;18.150;2024-02-28T09:07:07;99729.47;;;13.23;78.77
54592;BME280;40488;48.558;18.150;2024-02-28T09:09:40;99730.25;;;13.31;78.22
54592;BME280;40488;48.558;18.150;2024-02-28T09:12:08;99726.69;;;13.41;78.25
54592;BME280;40488;48.558;18.150;2024-02-28T09:14:36;99730.88;;;13.52;78.19
54592;BME280;40488;48.558;18.150;2024-02-28T09:17:05;99732.47;;;13.59;77.91
54592;BME280;40488;48.558;18.150;2024-02-28T09:19:35;99736.66;;;13.66;77.99
54592;BME280;40488;48.558;18.150;2024-02-28T09:22:03;99728.03;;;13.73;77.53
54592;BME280;40488;48.558;18.150;2024-02-28T09:24:31;99736.56;;;13.76;76.97
54592;BME280;40488;48.558;18.150;2024-02-28T09:27:00;99734.78;;;13.80;76.43
54592;BME280;40488;48.558;18.150;2024-02-28T09:29:30;99745.00;;;13.83;76.57
54592;BME280;40488;48.558;18.150;2024-02-28T09:31:58;99744.97;;;13.86;76.60
54592;BME280;40488;48.558;18.150;2024-02-28T09:34:27;99740.59;;;13.94;76.76
54592;BME280;40488;48.558;18.150;2024-02-28T09:36:57;99749.91;;;14.01;76.45
54592;BME280;40488;48.558;18.150;2024-02-28T09:39:25;99746.44;;;14.05;76.81
54592;BME280;40488;48.558;18.150;2024-02-28T09:41:54;99750.59;;;14.12;76.41
54592;BME280;40488;48.558;18.150;2024-02-28T09:44:22;99755.69;;;14.15;76.08
54592;BME280;40488;48.558;18.150;2024-02-28T09:46:51;99758.19;;;14.18;75.27
54592;BME280;40488;48.558;18.150;2024-02-28T09:49:20;99758.09;;;14.27;74.80
54592;BME280;40488;48.558;18.150;2024-02-28T09:51:48;99761.47;;;14.32;74.48
54592;BME280;40488;48.558;18.150;2024-02-28T09:54:19;99759.63;;;14.40;74.37
54592;BME280;40488;48.558;18.150;2024-02-28T09:56:49;99769.88;;;14.43;73.93
54592;BME280;40488;48.558;18.150;2024-02-28T09:59:19;99764.63;;;14.49;73.56
54592;BME280;40488;48.558;18.150;2024-02-28T10:01:56;99773.09;;;14.54;73.02
54592;BME280;40488;48.558;18.150;2024-02-28T10:04:25;99774.03;;;14.50;72.80
54592;BME280;40488;48.558;18.150;2024-02-28T10:06:55;99775.72;;;14.53;72.62
54592;BME280;40488;48.558;18.150;2024-02-28T10:09:25;99771.47;;;14.50;72.52
54592;BME280;40488;48.558;18.150;2024-02-28T10:11:54;99769.91;;;14.40;72.63
54592;BME280;40488;48.558;18.150;2024-02-28T10:14:22;99773.34;;;14.39;73.25
54592;BME280;40488;48.558;18.150;2024-02-28T10:16:52;99777.59;;;14.40;73.32
54592;BME280;40488;48.558;18.150;2024-02-28T10:19:21;99775.03;;;14.40;73.61
54592;BME280;40488;48.558;18.150;2024-02-28T10:21:50;99779.38;;;14.37;73.35
54592;BME280;40488;48.558;18.150;2024-02-28T10:24:19;99780.22;;;14.37;73.78
54592;BME280;40488;48.558;18.150;2024-02-28T10:26:50;99781.91;;;14.38;73.78
54592;BME280;40488;48.558;18.150;2024-02-28T10:29:23;99784.44;;;14.41;73.86
54592;BME280;40488;48.558;18.150;2024-02-28T10:31:54;99786.13;;;14.42;73.66
54592;BME280;40488;48.558;18.150;2024-02-28T10:34:23;99786.94;;;14.46;73.88
54592;BME280;40488;48.558;18.150;2024-02-28T10:36:51;99782.66;;;14.45;74.15
54592;BME280;40488;48.558;18.150;2024-02-28T10:39:20;99782.72;;;14.43;73.85
54592;BME280;40488;48.558;18.150;2024-02-28T10:41:52;99774.97;;;14.46;74.30
54592;BME280;40488;48.558;18.150;2024-02-28T10:44:20;99779.22;;;14.49;73.91
54592;BME280;40488;48.558;18.150;2024-02-28T10:46:49;99774.91;;;14.51;74.08
54592;BME280;40488;48.558;18.150;2024-02-28T10:49:18;99776.59;;;14.50;74.11
54592;BME280;40488;48.558;18.150;2024-02-28T10:51:48;99780.91;;;14.48;74.33
54592;BME280;40488;48.558;18.150;2024-02-28T10:54:18;99780.00;;;14.52;74.38
54592;BME280;40488;48.558;18.150;2024-02-28T10:56:49;99778.25;;;14.54;74.43
54592;BME280;40488;48.558;18.150;2024-02-28T10:59:18;99779.97;;;14.55;74.74
54592;BME280;40488;48.558;18.150;2024-02-28T11:01:49;99775.59;;;14.59;74.79
54592;BME280;40488;48.558;18.150;2024-02-28T11:04:18;99779.81;;;14.64;75.15
54592;BME280;40488;48.558;18.150;2024-02-28T11:06:47;99779.72;;;14.70;74.97
54592;BME280;40488;48.558;18.150;2024-02-28T11:09:20;99783.97;;;14.71;75.74
54592;BME280;40488;48.558;18.150;2024-02-28T11:11:51;99777.13;;;14.72;75.78
54592;BME280;40488;48.558;18.150;2024-02-28T11:14:21;99783.06;;;14.75;75.76
54592;BME280;40488;48.558;18.150;2024-02-28T11:17:00;99781.25;;;14.81;75.66
54592;BME280;40488;48.558;18.150;2024-02-28T11:19:30;99780.28;;;14.88;75.74
54592;BME280;40488;48.558;18.150;2024-02-28T11:22:00;99777.66;;;14.91;75.45
54592;BME280;40488;48.558;18.150;2024-02-28T11:24:32;99786.09;;;14.99;74.75
54592;BME280;40488;48.558;18.150;2024-02-28T11:27:01;99782.50;;;15.09;74.62
54592;BME280;40488;48.558;18.150;2024-02-28T11:29:32;99778.13;;;15.14;73.77
54592;BME280;40488;48.558;18.150;2024-02-28T11:32:00;99780.59;;;15.20;73.69
54592;BME280;40488;48.558;18.150;2024-02-28T11:34:29;99781.44;;;15.20;73.59
54592;BME280;40488;48.558;18.150;2024-02-28T11:36:57;99786.53;;;15.23;73.45
54592;BME280;40488;48.558;18.150;2024-02-28T11:39:26;99787.34;;;15.24;73.25
54592;BME280;40488;48.558;18.150;2024-02-28T11:42:07;99784.75;;;15.27;73.32
54592;BME280;40488;48.558;18.150;2024-02-28T11:44:38;99787.31;;;15.27;73.04
54592;BME280;40488;48.558;18.150;2024-02-28T11:47:08;99786.44;;;15.28;72.87
54592;BME280;40488;48.558;18.150;2024-02-28T11:49:37;99784.69;;;15.28;72.43
54592;BME280;40488;48.558;18.150;2024-02-28T11:52:06;99782.88;;;15.35;72.60
54592;BME280;40488;48.558;18.150;2024-02-28T11:54:36;99782.81;;;15.39;72.20
54592;BME280;40488;48.558;18.150;2024-02-28T11:57:05;99773.22;;;15.49;71.61
54592;BME280;40488;48.558;18.150;2024-02-28T11:59:33;99774.56;;;15.68;70.84
54592;BME280;40488;48.558;18.150;2024-02-28T12:02:10;99777.75;;;15.79;70.41
54592;BME280;40488;48.558;18.150;2024-02-28T12:04:39;99765.63;;;15.84;69.77
54592;BME280;40488;48.558;18.150;2024-02-28T12:07:08;99771.63;;;15.85;69.22
54592;BME280;40488;48.558;18.150;2024-02-28T12:09:37;99775.94;;;15.84;68.35
54592;BME280;40488;48.558;18.150;2024-02-28T12:12:09;99771.59;;;15.88;68.29
54592;BME280;40488;48.558;18.150;2024-02-28T12:14:37;99774.13;;;15.89;67.13
54592;BME280;40488;48.558;18.150;2024-02-28T12:17:07;99770.59;;;15.93;66.43
54592;BME280;40488;48.558;18.150;2024-02-28T12:19:36;99767.91;;;15.99;66.80
54592;BME280;40488;48.558;18.150;2024-02-28T12:22:04;99776.38;;;16.04;66.65
54592;BME280;40488;48.558;18.150;2024-02-28T12:24:33;99771.09;;;16.10;66.93
54592;BME280;40488;48.558;18.150;2024-02-28T12:27:02;99771.03;;;16.14;66.80
54592;BME280;40488;48.558;18.150;2024-02-28T12:29:30;99774.44;;;16.14;66.97
54592;BME280;40488;48.558;18.150;2024-02-28T12:31:59;99764.91;;;16.18;66.87
54592;BME280;40488;48.558;18.150;2024-02-28T12:34:29;99763.16;;;16.20;66.71
54592;BME280;40488;48.558;18.150;2024-02-28T12:36:58;99754.44;;;16.27;66.52
54592;BME280;40488;48.558;18.150;2024-02-28T12:39:27;99762.00;;;16.33;66.60
54592;BME280;40488;48.558;18.150;2024-02-28T12:41:55;99757.44;;;16.44;66.53
54592;BME280;40488;48.558;18.150;2024-02-28T12:44:24;99761.28;;;16.64;66.67
54592;BME280;40488;48.558;18.150;2024-02-28T12:46:52;99745.13;;;16.92;66.28
54592;BME280;40488;48.558;18.150;2024-02-28T12:49:20;99749.88;;;17.08;65.50
54592;BME280;40488;48.558;18.150;2024-02-28T12:51:50;99748.72;;;17.18;64.87
54592;BME280;40488;48.558;18.150;2024-02-28T12:54:19;99753.75;;;17.24;64.56
54592;BME280;40488;48.558;18.150;2024-02-28T12:56:47;99746.16;;;17.18;64.13
54592;BME280;40488;48.558;18.150;2024-02-28T12:59:16;99751.38;;;17.17;64.64